Time;durP1;ratioP1;P1;durP2;ratioP2;P2;SDS_P1;SDS_P2;PMS_P1;PMS_P2;Temp;Humidity;BMP_temperature;BMP_pressure;BME280_temperature;BME280_humidity;BME280_pressure;Samples;Min_cycle;Max_cycle;Signal;HPM_P1;HPM_P2
2023/04/19 00:00:30;;;;;;;41.45;22.38;;;;;;;6.24;100.00;93334.81;2059767;28;20026;-82
2023/04/19 00:01:32;;;;;;;40.90;22.10;;;;;;;6.24;100.00;93339.38;2055279;28;20027;-83
2023/04/19 00:02:34;;;;;;;42.97;22.50;;;;;;;6.20;100.00;93328.00;2047916;28;20027;-84
2023/04/19 00:03:35;;;;;;;39.63;20.70;;;;;;;6.24;100.00;93336.72;2055420;28;20031;-83
2023/04/19 00:04:37;;;;;;;36.50;21.52;;;;;;;6.28;100.00;93327.59;2059628;28;20499;-83
2023/04/19 00:05:38;;;;;;;46.05;23.05;;;;;;;6.20;100.00;93330.66;2060605;28;20041;-83
2023/04/19 00:06:40;;;;;;;44.28;23.13;;;;;;;6.20;100.00;93334.06;2062923;28;20026;-84
2023/04/19 00:07:42;;;;;;;39.83;22.40;;;;;;;6.24;100.00;93334.81;2058397;28;20039;-83
2023/04/19 00:08:43;;;;;;;42.45;22.80;;;;;;;6.22;100.00;93328.38;2063259;28;20467;-84
2023/04/19 00:09:45;;;;;;;43.05;22.60;;;;;;;6.15;100.00;93334.47;2061273;28;20208;-83
2023/04/19 00:10:46;;;;;;;41.83;23.52;;;;;;;6.19;100.00;93329.91;2054529;28;20476;-83
2023/04/19 00:11:47;;;;;;;48.22;23.88;;;;;;;6.21;100.00;93326.84;2045950;28;20473;-84
2023/04/19 00:12:48;;;;;;;44.00;22.23;;;;;;;6.29;100.00;93323.81;2046715;28;20035;-83
2023/04/19 00:13:50;;;;;;;43.13;22.17;;;;;;;6.20;100.00;93326.09;2060120;28;20049;-83
2023/04/19 00:14:53;;;;;;;43.90;23.65;;;;;;;6.18;100.00;93328.38;2064215;28;20037;-82
2023/04/19 00:15:54;;;;;;;43.13;22.48;;;;;;;6.14;100.00;93326.84;2059625;28;20026;-83
2023/04/19 00:16:56;;;;;;;43.55;22.65;;;;;;;6.20;100.00;93326.09;2063567;28;20050;-84
2023/04/19 00:17:57;;;;;;;46.45;23.67;;;;;;;6.22;100.00;93329.13;2060375;28;20473;-83
2023/04/19 00:18:58;;;;;;;45.10;23.15;;;;;;;6.21;100.00;93321.53;2059081;28;20026;-83
2023/04/19 00:20:00;;;;;;;43.78;24.08;;;;;;;6.14;100.00;93324.97;2052162;28;20418;-85
2023/04/19 00:21:01;;;;;;;42.70;23.92;;;;;;;6.10;100.00;93320.78;2055426;28;20666;-84
2023/04/19 00:22:02;;;;;;;39.63;21.90;;;;;;;6.04;100.00;93323.84;2051877;28;20034;-83
2023/04/19 00:23:03;;;;;;;48.88;25.50;;;;;;;6.09;100.00;93324.59;2043859;29;20051;-85
2023/04/19 00:24:04;;;;;;;46.60;24.70;;;;;;;5.98;100.00;93309.47;2041267;28;20392;-82
2023/04/19 00:25:06;;;;;;;45.75;24.98;;;;;;;5.90;100.00;93317.78;2046937;28;20114;-83
2023/04/19 00:26:07;;;;;;;44.00;24.48;;;;;;;5.80;100.00;93320.06;2039134;28;20031;-84
2023/04/19 00:27:08;;;;;;;43.97;24.95;;;;;;;5.88;100.00;93317.38;2049547;28;20117;-84
2023/04/19 00:28:08;;;;;;;52.65;25.90;;;;;;;5.80;100.00;93312.09;2058309;28;20022;-83
2023/04/19 00:29:09;;;;;;;45.83;25.33;;;;;;;5.76;100.00;93318.53;2053759;28;20023;-82
2023/04/19 00:30:11;;;;;;;45.05;24.20;;;;;;;5.77;100.00;93314.75;2047295;28;20027;-83
2023/04/19 00:31:12;;;;;;;47.42;24.52;;;;;;;5.93;100.00;93309.09;2055158;28;20027;-84
2023/04/19 00:32:15;;;;;;;45.22;23.75;;;;;;;5.89;100.00;93309.06;2061567;28;20061;-83
2023/04/19 00:33:16;;;;;;;42.10;22.92;;;;;;;5.83;100.00;93310.56;2062234;28;20271;-84
2023/04/19 00:34:17;;;;;;;39.97;23.13;;;;;;;5.73;100.00;93312.09;2067689;28;20492;-82
2023/04/19 00:35:18;;;;;;;40.58;23.38;;;;;;;5.69;100.00;93313.22;2059939;28;20026;-83
2023/04/19 00:36:21;;;;;;;46.45;24.02;;;;;;;5.65;100.00;93312.47;2061809;28;20022;-83
2023/04/19 00:37:22;;;;;;;46.35;25.27;;;;;;;5.60;100.00;93320.81;2058238;28;20130;-84
2023/04/19 00:38:24;;;;;;;46.03;24.15;;;;;;;5.66;100.00;93311.31;2049230;28;20031;-84
2023/04/19 00:39:26;;;;;;;45.55;23.65;;;;;;;5.52;100.00;93320.78;2043235;28;20023;-83
2023/04/19 00:40:27;;;;;;;43.15;22.83;;;;;;;5.58;100.00;93315.13;2052788;28;20084;-85
2023/04/19 00:41:29;;;;;;;43.08;23.45;;;;;;;5.54;100.00;93313.25;2059559;28;20077;-83
2023/04/19 00:42:37;;;;;;;42.25;23.13;;;;;;;5.44;100.00;93316.63;2047568;28;20061;-84
2023/04/19 00:43:38;;;;;;;40.53;22.58;;;;;;;5.47;100.00;93315.88;2049038;28;20028;-83
2023/04/19 00:44:39;;;;;;;46.35;23.73;;;;;;;5.53;100.00;93309.06;2047113;29;20027;-84
2023/04/19 00:45:41;;;;;;;44.90;23.33;;;;;;;5.44;100.00;93306.00;2051223;28;20129;-84
2023/04/19 00:46:42;;;;;;;40.35;21.80;;;;;;;5.39;100.00;93309.03;2051117;28;20506;-83
2023/04/19 00:47:44;;;;;;;43.67;22.33;;;;;;;5.41;100.00;93312.09;2047773;28;20393;-83
2023/04/19 00:48:45;;;;;;;45.65;23.40;;;;;;;5.36;100.00;93312.47;2047365;29;20027;-83
2023/04/19 00:49:46;;;;;;;40.15;23.05;;;;;;;5.34;100.00;93308.66;2043013;29;20031;-84
2023/04/19 00:50:47;;;;;;;42.75;23.77;;;;;;;5.30;100.00;93306.75;2054157;28;20022;-84
2023/04/19 00:51:49;;;;;;;44.03;22.95;;;;;;;5.40;100.00;93310.59;2047325;28;20078;-84
2023/04/19 00:52:53;;;;;;;40.92;22.80;;;;;;;5.41;100.00;93311.34;2054719;28;20033;-84
2023/04/19 00:53:56;;;;;;;40.15;22.85;;;;;;;5.37;100.00;93310.56;2053757;28;20026;-83
2023/04/19 00:54:58;;;;;;;43.75;22.42;;;;;;;5.34;100.00;93306.03;2053019;28;20027;-83
2023/04/19 00:56:03;;;;;;;44.25;22.80;;;;;;;5.33;100.00;93307.16;2054138;28;20022;-82
2023/04/19 00:57:06;;;;;;;42.42;22.08;;;;;;;5.29;100.00;93309.81;2044399;29;20473;-83
2023/04/19 00:58:08;;;;;;;40.58;23.65;;;;;;;5.24;100.00;93310.94;2041455;28;20030;-84
2023/04/19 00:59:14;;;;;;;39.22;22.00;;;;;;;5.18;100.00;93298.41;2059442;28;20502;-85
2023/04/19 01:00:17;;;;;;;37.25;21.35;;;;;;;5.24;100.00;93302.97;2044177;28;20413;-83
2023/04/19 01:01:22;;;;;;;40.53;21.80;;;;;;;5.22;100.00;93305.25;2043734;28;20034;-85
2023/04/19 01:02:23;;;;;;;40.38;21.77;;;;;;;5.23;100.00;93298.81;2047216;28;20070;-84
2023/04/19 01:03:29;;;;;;;43.67;23.00;;;;;;;5.26;100.00;93306.00;2042733;28;20030;-84
2023/04/19 01:04:31;;;;;;;37.17;21.35;;;;;;;5.19;100.00;93299.94;2046917;28;20468;-83
2023/04/19 01:05:32;;;;;;;36.22;21.80;;;;;;;5.34;100.00;93298.81;2043567;28;20079;-83
2023/04/19 01:06:35;;;;;;;39.13;21.83;;;;;;;5.29;100.00;93301.84;2049128;28;20339;-84
2023/04/19 01:07:37;;;;;;;41.47;21.42;;;;;;;5.28;100.00;93303.00;2055213;28;20029;-83
2023/04/19 01:08:39;;;;;;;36.60;21.73;;;;;;;5.27;100.00;93301.47;2053180;28;20062;-83
2023/04/19 01:09:43;;;;;;;36.72;21.13;;;;;;;5.25;100.00;93299.19;2049205;28;20207;-83
2023/04/19 01:10:44;;;;;;;38.33;21.13;;;;;;;5.25;100.00;93299.19;2046802;28;20032;-84
2023/04/19 01:11:45;;;;;;;38.92;22.40;;;;;;;5.20;100.00;93302.22;2051546;28;20023;-83
2023/04/19 01:12:46;;;;;;;38.47;21.42;;;;;;;5.17;100.00;93297.66;2057975;28;20022;-82
2023/04/19 01:13:47;;;;;;;40.58;22.20;;;;;;;5.17;100.00;93297.66;2050761;28;20066;-83
2023/04/19 01:14:49;;;;;;;35.88;19.85;;;;;;;5.10;100.00;93297.66;2046387;28;20027;-83
2023/04/19 01:15:50;;;;;;;36.38;21.20;;;;;;;5.07;100.00;93303.72;2046912;29;20027;-83
2023/04/19 01:16:51;;;;;;;39.05;20.90;;;;;;;5.05;100.00;93301.44;2046553;29;20036;-83
2023/04/19 01:17:54;;;;;;;38.00;21.00;;;;;;;5.03;100.00;93287.81;2043335;28;20542;-82
2023/04/19 01:18:55;;;;;;;33.08;20.30;;;;;;;5.02;100.00;93298.78;2054881;28;20381;-83
2023/04/19 01:20:01;;;;;;;33.13;19.77;;;;;;;5.06;100.00;93302.19;2058783;28;20050;-83
2023/04/19 01:21:03;;;;;;;35.13;19.60;;;;;;;5.05;100.00;93298.03;2051933;28;20122;-84
2023/04/19 01:22:05;;;;;;;33.50;21.08;;;;;;;4.99;100.00;93296.88;2043726;28;20604;-82
2023/04/19 01:23:10;;;;;;;33.95;20.27;;;;;;;4.95;100.00;93298.75;2054751;28;20034;-84
2023/04/19 01:24:11;;;;;;;33.45;20.05;;;;;;;4.96;100.00;93279.84;2062719;28;20022;-83
2023/04/19 01:25:12;;;;;;;33.08;19.52;;;;;;;4.93;100.00;93291.19;2060314;28;20107;-83
2023/04/19 01:26:13;;;;;;;31.48;20.15;;;;;;;4.90;100.00;93289.28;2055101;28;20027;-82
2023/04/19 01:27:16;;;;;;;32.53;19.67;;;;;;;4.91;100.00;93290.03;2046994;28;20098;-82
2023/04/19 01:28:17;;;;;;;30.23;18.80;;;;;;;4.90;100.00;93284.00;2047120;28;20033;-84
2023/04/19 01:29:19;;;;;;;31.33;19.50;;;;;;;4.89;100.00;93292.31;2051273;28;20158;-83
2023/04/19 01:30:20;;;;;;;34.03;20.08;;;;;;;4.88;100.00;93288.91;2058283;28;20040;-85
2023/04/19 01:31:24;;;;;;;36.30;19.67;;;;;;;4.90;100.00;93289.28;2054964;28;20058;-84
2023/04/19 01:32:25;;;;;;;32.10;18.55;;;;;;;4.87;100.00;93290.03;2055191;28;20023;-84
2023/04/19 01:33:27;;;;;;;31.85;19.65;;;;;;;4.85;100.00;93292.31;2046699;28;20592;-83
2023/04/19 01:34:28;;;;;;;31.33;19.70;;;;;;;4.86;100.00;93293.81;2053587;28;20038;-84
2023/04/19 01:35:29;;;;;;;30.55;19.45;;;;;;;4.89;100.00;93290.44;2050235;28;20574;-82
2023/04/19 01:36:30;;;;;;;33.90;19.80;;;;;;;4.89;100.00;93289.66;2047692;28;20050;-84
2023/04/19 01:37:34;;;;;;;33.40;19.73;;;;;;;4.88;100.00;93286.28;2059927;28;20483;-82
2023/04/19 01:38:35;;;;;;;31.67;19.50;;;;;;;4.93;100.00;93283.25;2047423;28;20023;-85
2023/04/19 01:39:36;;;;;;;29.65;18.90;;;;;;;4.98;100.00;93288.16;2052324;28;20391;-84
2023/04/19 01:40:39;;;;;;;34.08;19.65;;;;;;;4.99;100.00;93280.97;2051570;28;20025;-84
2023/04/19 01:41:40;;;;;;;33.15;19.92;;;;;;;5.01;100.00;93295.38;2050986;28;20015;-82
2023/04/19 01:42:41;;;;;;;32.00;20.08;;;;;;;4.98;100.00;93282.88;2055200;28;20035;-83
2023/04/19 01:43:42;;;;;;;31.98;19.05;;;;;;;4.99;100.00;93279.09;2054877;28;20030;-85
2023/04/19 01:44:44;;;;;;;45.10;20.73;;;;;;;5.02;100.00;93281.00;2054785;28;20031;-84
2023/04/19 01:45:45;;;;;;;31.40;19.45;;;;;;;5.04;100.00;93283.25;2054876;28;20049;-84
2023/04/19 01:46:46;;;;;;;29.55;18.65;;;;;;;5.08;100.00;93275.31;2051150;28;20511;-84
2023/04/19 01:47:47;;;;;;;32.08;19.48;;;;;;;5.09;100.00;93279.47;2048573;28;20050;-83
2023/04/19 01:48:48;;;;;;;30.35;18.05;;;;;;;5.08;100.00;93284.03;2047696;28;20496;-85
2023/04/19 01:49:49;;;;;;;32.13;20.33;;;;;;;5.16;100.00;93274.19;2046440;28;20029;-82
2023/04/19 01:50:50;;;;;;;34.22;19.42;;;;;;;5.15;100.00;93281.41;2042932;28;20023;-83
2023/04/19 01:51:51;;;;;;;30.83;18.10;;;;;;;5.09;100.00;93276.84;2043335;28;20031;-83
2023/04/19 01:52:52;;;;;;;28.90;18.75;;;;;;;5.10;100.00;93271.19;2046338;29;20022;-82
2023/04/19 01:53:54;;;;;;;32.40;18.48;;;;;;;5.09;100.00;93274.19;2050965;28;20037;-84
2023/04/19 01:54:55;;;;;;;29.48;18.55;;;;;;;5.05;100.00;93274.94;2046746;28;20038;-83
2023/04/19 01:55:57;;;;;;;27.75;17.70;;;;;;;5.05;100.00;93269.66;2046685;28;20390;-84
2023/04/19 01:57:00;;;;;;;28.05;18.02;;;;;;;5.04;100.00;93272.66;2047420;28;20110;-83
2023/04/19 01:58:01;;;;;;;27.73;17.52;;;;;;;5.08;100.00;93268.13;2050694;28;20084;-83
2023/04/19 01:59:03;;;;;;;31.23;19.02;;;;;;;5.12;100.00;93268.88;2045880;28;20484;-82
2023/04/19 02:00:05;;;;;;;26.48;18.23;;;;;;;5.11;100.00;93270.03;2046793;28;20074;-83
2023/04/19 02:01:11;;;;;;;30.45;17.85;;;;;;;5.15;100.00;93272.69;2044874;28;20054;-82
2023/04/19 02:02:12;;;;;;;27.13;17.33;;;;;;;5.11;100.00;93272.69;2048382;28;20085;-83
2023/04/19 02:03:15;;;;;;;26.23;17.27;;;;;;;5.14;100.00;93271.94;2046513;28;20469;-82
2023/04/19 02:04:19;;;;;;;25.88;17.60;;;;;;;5.12;100.00;93270.78;2055400;28;20097;-83
2023/04/19 02:05:22;;;;;;;26.88;18.27;;;;;;;5.13;100.00;93269.66;2058862;28;20558;-83
2023/04/19 02:06:23;;;;;;;29.10;18.42;;;;;;;5.20;100.00;93254.53;2046813;28;20039;-84
2023/04/19 02:07:24;;;;;;;25.13;17.02;;;;;;;5.17;100.00;93263.22;2049505;28;20073;-83
2023/04/19 02:08:26;;;;;;;29.02;17.67;;;;;;;5.14;100.00;93263.22;2062539;28;20479;-82
2023/04/19 02:09:27;;;;;;;24.10;16.98;;;;;;;5.17;100.00;93268.50;2057548;28;20173;-83
2023/04/19 02:10:28;;;;;;;25.95;18.17;;;;;;;5.16;100.00;93263.59;2055070;28;20090;-84
2023/04/19 02:11:29;;;;;;;28.13;17.58;;;;;;;5.18;100.00;93266.63;2054557;28;20052;-84
2023/04/19 02:12:32;;;;;;;24.55;17.25;;;;;;;5.16;100.00;93258.31;2062564;28;20033;-83
2023/04/19 02:13:33;;;;;;;25.52;17.33;;;;;;;5.21;100.00;93265.88;2053332;28;20046;-84
2023/04/19 02:14:36;;;;;;;25.58;17.38;;;;;;;5.23;100.00;93253.03;2051964;28;20019;-83
2023/04/19 02:15:37;;;;;;;23.15;16.45;;;;;;;5.30;100.00;93250.34;2052236;28;20030;-82
2023/04/19 02:16:39;;;;;;;22.60;16.58;;;;;;;5.25;100.00;93256.03;2051829;28;20045;-84
2023/04/19 02:17:40;;;;;;;24.27;17.00;;;;;;;5.28;100.00;93255.28;2061887;28;20581;-84
2023/04/19 02:18:42;;;;;;;24.40;16.42;;;;;;;5.42;100.00;93254.53;2052584;28;20027;-83
2023/04/19 02:19:43;;;;;;;25.67;16.98;;;;;;;5.39;100.00;93263.97;2052554;28;20055;-83
2023/04/19 02:20:44;;;;;;;22.65;16.40;;;;;;;5.37;100.00;93260.97;2047041;28;20027;-82
2023/04/19 02:21:45;;;;;;;21.73;16.52;;;;;;;5.38;100.00;93257.19;2046614;28;20113;-83
2023/04/19 02:22:47;;;;;;;22.45;16.13;;;;;;;5.34;100.00;93251.13;2054389;28;20077;-82
2023/04/19 02:23:48;;;;;;;23.42;16.15;;;;;;;5.36;100.00;93253.41;2065350;28;20090;-83
2023/04/19 02:24:50;;;;;;;19.88;15.30;;;;;;;5.38;100.00;93248.47;2058501;28;20445;-83
2023/04/19 02:25:51;;;;;;;23.55;15.45;;;;;;;5.47;100.00;93251.50;2052312;28;20515;-83
2023/04/19 02:26:53;;;;;;;24.17;16.15;;;;;;;5.43;100.00;93256.78;2058211;28;20023;-81
2023/04/19 02:27:55;;;;;;;22.98;16.27;;;;;;;5.42;100.00;93243.94;2050580;28;20442;-84
2023/04/19 02:28:56;;;;;;;22.40;15.77;;;;;;;5.41;100.00;93245.06;2057942;28;20054;-84
2023/04/19 02:29:57;;;;;;;23.30;15.32;;;;;;;5.35;100.00;93249.97;2046841;28;20035;-83
2023/04/19 02:31:04;;;;;;;18.73;14.63;;;;;;;5.38;100.00;93248.47;2058395;28;20029;-82
2023/04/19 02:32:05;;;;;;;18.90;15.80;;;;;;;5.50;100.00;93248.84;2055127;28;20027;-83
2023/04/19 02:33:08;;;;;;;20.60;15.15;;;;;;;5.43;100.00;93248.09;2042475;28;20123;-83
2023/04/19 02:34:09;;;;;;;19.13;14.57;;;;;;;5.44;100.00;93246.94;2045547;28;20023;-83
2023/04/19 02:35:11;;;;;;;19.80;15.38;;;;;;;5.47;100.00;93246.19;2045229;28;20050;-84
2023/04/19 02:36:12;;;;;;;20.38;14.48;;;;;;;5.48;100.00;93255.66;2046913;28;20102;-84
2023/04/19 02:37:13;;;;;;;20.67;14.88;;;;;;;5.44;100.00;93255.66;2054889;28;20042;-83
2023/04/19 02:38:14;;;;;;;19.02;14.07;;;;;;;5.51;100.00;93253.00;2052045;28;20066;-84
2023/04/19 02:39:16;;;;;;;19.60;13.95;;;;;;;5.53;100.00;93248.09;2054440;28;20093;-84
2023/04/19 02:40:17;;;;;;;19.90;14.20;;;;;;;5.44;100.00;93244.28;2054018;28;20023;-84
2023/04/19 02:41:18;;;;;;;17.25;13.75;;;;;;;5.47;100.00;93246.19;2050110;28;20776;-83
2023/04/19 02:42:19;;;;;;;21.88;14.25;;;;;;;5.44;100.00;93253.00;2054822;28;20099;-82
2023/04/19 02:43:20;;;;;;;16.25;13.73;;;;;;;5.44;100.00;93246.94;2050903;28;20193;-83
2023/04/19 02:44:21;;;;;;;19.13;13.60;;;;;;;5.49;100.00;93252.66;2052154;28;20053;-84
2023/04/19 02:45:23;;;;;;;18.70;14.52;;;;;;;5.49;100.00;93244.69;2058674;28;20275;-82
2023/04/19 02:46:26;;;;;;;18.73;13.90;;;;;;;5.48;100.00;93243.16;2050726;28;20030;-82
2023/04/19 02:47:27;;;;;;;16.05;12.68;;;;;;;5.47;100.00;93239.00;2054872;28;20023;-83
2023/04/19 02:48:28;;;;;;;20.02;13.10;;;;;;;5.54;100.00;93243.53;2058551;28;20027;-83
2023/04/19 02:49:35;;;;;;;19.15;13.15;;;;;;;5.49;100.00;93244.69;2042514;28;20067;-82
2023/04/19 02:50:37;;;;;;;16.27;12.80;;;;;;;5.51;100.00;93247.72;2058990;28;20022;-82
2023/04/19 02:51:39;;;;;;;16.70;12.73;;;;;;;5.58;100.00;93244.31;2051599;28;20053;-82
2023/04/19 02:52:40;;;;;;;16.58;13.57;;;;;;;5.47;100.00;93240.88;2045837;28;20419;-85
2023/04/19 02:53:41;;;;;;;16.98;13.50;;;;;;;5.44;100.00;93239.75;2045799;28;20122;-84
2023/04/19 02:54:44;;;;;;;18.10;13.05;;;;;;;5.50;100.00;93246.19;2053276;28;20476;-83
2023/04/19 02:55:46;;;;;;;14.98;12.80;;;;;;;5.56;100.00;93244.66;2060202;28;20036;-82
2023/04/19 02:56:48;;;;;;;14.80;12.60;;;;;;;5.51;100.00;93250.34;2051725;28;20033;-83
2023/04/19 02:57:49;;;;;;;14.52;11.70;;;;;;;5.53;100.00;93244.66;2053228;28;20117;-82
2023/04/19 02:58:53;;;;;;;17.35;12.40;;;;;;;5.53;100.00;93252.63;2058824;28;20019;-84
2023/04/19 02:59:54;;;;;;;17.20;12.32;;;;;;;5.47;100.00;93244.28;2054879;28;20409;-83
2023/04/19 03:00:56;;;;;;;15.70;12.82;;;;;;;5.51;100.00;93244.31;2050236;28;20542;-82
2023/04/19 03:01:56;;;;;;;14.07;12.05;;;;;;;5.55;100.00;93243.16;2042973;28;20031;-84
2023/04/19 03:02:58;;;;;;;13.80;12.20;;;;;;;5.66;100.00;93237.06;2049254;28;20031;-83
2023/04/19 03:03:59;;;;;;;13.75;12.07;;;;;;;5.70;100.00;93241.25;2059137;28;20061;-82
2023/04/19 03:05:01;;;;;;;16.05;13.25;;;;;;;5.78;100.00;93244.66;2059116;28;20330;-83
2023/04/19 03:06:02;;;;;;;13.82;12.25;;;;;;;5.74;100.00;93236.69;2060493;28;20080;-83
2023/04/19 03:07:03;;;;;;;15.07;12.52;;;;;;;5.63;100.00;93237.84;2061468;28;20034;-83
2023/04/19 03:08:04;;;;;;;15.98;13.45;;;;;;;5.58;100.00;93239.00;2049669;28;20499;-84
2023/04/19 03:09:05;;;;;;;16.70;12.65;;;;;;;5.52;100.00;93230.66;2050573;28;20031;-84
2023/04/19 03:10:07;;;;;;;15.90;12.18;;;;;;;5.59;100.00;93232.56;2054569;28;20023;-83
2023/04/19 03:11:13;;;;;;;14.20;12.00;;;;;;;5.53;100.00;93234.06;2046543;28;20015;-82
2023/04/19 03:12:15;;;;;;;14.55;12.68;;;;;;;5.56;100.00;93235.97;2046813;28;20031;-83
2023/04/19 03:13:17;;;;;;;14.57;12.07;;;;;;;5.56;100.00;93233.31;2054615;28;20026;-84
2023/04/19 03:14:19;;;;;;;14.82;12.55;;;;;;;5.53;100.00;93234.84;2049499;28;20094;-83
2023/04/19 03:15:21;;;;;;;14.80;12.15;;;;;;;5.49;100.00;93239.38;2046511;28;20118;-82
2023/04/19 03:16:22;;;;;;;14.57;12.60;;;;;;;5.66;100.00;93237.06;2046482;28;20030;-84
2023/04/19 03:17:23;;;;;;;13.35;11.70;;;;;;;5.67;100.00;93228.00;2042314;28;20055;-83
2023/04/19 03:18:24;;;;;;;13.85;11.55;;;;;;;5.54;100.00;93225.00;2045527;28;20023;-83
2023/04/19 03:19:25;;;;;;;13.98;11.48;;;;;;;5.52;100.00;93235.19;2043848;28;20130;-83
2023/04/19 03:20:28;;;;;;;12.52;10.80;;;;;;;5.65;100.00;93230.28;2042672;28;20027;-84
2023/04/19 03:21:30;;;;;;;13.45;11.13;;;;;;;5.59;100.00;93232.56;2050923;28;20023;-82
2023/04/19 03:22:31;;;;;;;13.75;11.80;;;;;;;5.59;100.00;93231.81;2050472;28;20046;-82
2023/04/19 03:23:32;;;;;;;13.02;11.73;;;;;;;5.54;100.00;93225.00;2051987;28;20383;-84
2023/04/19 03:24:33;;;;;;;15.15;12.50;;;;;;;5.53;100.00;93226.88;2047001;28;20135;-83
2023/04/19 03:25:34;;;;;;;13.90;12.23;;;;;;;5.58;100.00;93220.44;2048975;28;20030;-83
2023/04/19 03:26:36;;;;;;;13.80;12.30;;;;;;;5.54;100.00;93228.41;2057931;28;20049;-83
2023/04/19 03:27:37;;;;;;;14.57;11.55;;;;;;;5.54;100.00;93227.66;2061927;28;20128;-83
2023/04/19 03:28:38;;;;;;;12.80;11.50;;;;;;;5.63;100.00;93224.59;2051585;28;20038;-83
2023/04/19 03:29:39;;;;;;;14.05;11.68;;;;;;;5.66;100.00;93219.28;2049669;28;20022;-83
2023/04/19 03:30:40;;;;;;;12.32;11.13;;;;;;;5.66;100.00;93218.50;2045574;28;20500;-83
2023/04/19 03:31:42;;;;;;;14.23;11.85;;;;;;;5.54;100.00;93225.75;2045849;28;20027;-82
2023/04/19 03:32:45;;;;;;;12.82;10.95;;;;;;;5.54;100.00;93225.75;2047795;28;20118;-82
2023/04/19 03:33:47;;;;;;;12.88;11.23;;;;;;;5.62;100.00;93220.41;2056016;28;20053;-83
2023/04/19 03:34:48;;;;;;;13.57;11.15;;;;;;;5.55;100.00;93226.50;2063608;28;20510;-83
2023/04/19 03:35:49;;;;;;;15.00;11.98;;;;;;;5.57;100.00;93216.25;2052270;28;20034;-84
2023/04/19 03:36:50;;;;;;;13.38;11.98;;;;;;;5.64;100.00;93215.50;2054870;28;20161;-83
2023/04/19 03:37:51;;;;;;;13.38;11.98;;;;;;;5.74;100.00;93220.78;2048018;28;20039;-84
2023/04/19 03:38:52;;;;;;;12.95;11.63;;;;;;;5.70;100.00;93217.38;2051543;28;20032;-84
2023/04/19 03:39:53;;;;;;;16.77;12.20;;;;;;;5.65;100.00;93217.00;2044100;28;20035;-84
2023/04/19 03:40:56;;;;;;;12.88;11.35;;;;;;;5.59;100.00;93218.53;2059649;28;20429;-83
2023/04/19 03:41:57;;;;;;;14.77;11.35;;;;;;;5.59;100.00;93210.59;2060288;28;20081;-83
2023/04/19 03:42:58;;;;;;;14.30;11.55;;;;;;;5.59;100.00;93215.91;2044084;28;20024;-83
2023/04/19 03:44:00;;;;;;;14.50;11.35;;;;;;;5.64;100.00;93218.91;2046427;28;20320;-84
2023/04/19 03:45:01;;;;;;;14.73;11.35;;;;;;;5.60;100.00;93214.75;2052539;28;20294;-83
2023/04/19 03:46:02;;;;;;;15.38;11.73;;;;;;;5.70;100.00;93214.72;2052036;28;20440;-83
2023/04/19 03:47:03;;;;;;;13.18;11.60;;;;;;;5.64;100.00;93215.50;2055164;28;20066;-83
2023/04/19 03:48:06;;;;;;;13.68;12.07;;;;;;;5.63;100.00;93214.75;2055812;28;20161;-84
2023/04/19 03:49:09;;;;;;;14.18;11.80;;;;;;;5.55;100.00;93214.00;2047795;28;20031;-83
2023/04/19 03:50:11;;;;;;;13.82;11.50;;;;;;;5.58;100.00;93209.09;2043579;28;20484;-83
2023/04/19 03:51:15;;;;;;;13.32;11.55;;;;;;;5.57;100.00;93210.94;2052022;28;20026;-83
2023/04/19 03:52:17;;;;;;;13.98;11.93;;;;;;;5.65;100.00;93215.13;2054753;28;20022;-83
2023/04/19 03:53:18;;;;;;;13.85;11.43;;;;;;;5.64;100.00;93216.25;2052178;28;20128;-83
2023/04/19 03:54:21;;;;;;;15.00;12.30;;;;;;;5.56;100.00;93212.84;2067924;28;20371;-83
2023/04/19 03:55:23;;;;;;;14.77;11.98;;;;;;;5.59;100.00;93214.00;2059631;28;20121;-83
2023/04/19 03:56:25;;;;;;;13.13;11.75;;;;;;;5.66;100.00;93207.91;2055828;28;20030;-83
2023/04/19 03:57:26;;;;;;;13.52;12.00;;;;;;;5.64;100.00;93218.16;2051132;28;20074;-85
2023/04/19 03:58:27;;;;;;;14.07;12.32;;;;;;;5.56;100.00;93212.09;2054558;28;20654;-81
2023/04/19 03:59:31;;;;;;;15.57;11.88;;;;;;;5.58;100.00;93203.78;2047960;28;20027;-82
2023/04/19 04:00:32;;;;;;;14.18;11.82;;;;;;;5.63;100.00;93209.44;2053571;28;20054;-82
2023/04/19 04:01:33;;;;;;;13.65;12.23;;;;;;;5.66;100.00;93213.22;2054367;28;20037;-83
2023/04/19 04:02:38;;;;;;;13.95;11.73;;;;;;;5.73;100.00;93207.91;2044920;28;20035;-84
2023/04/19 04:03:39;;;;;;;13.25;11.85;;;;;;;5.72;100.00;93214.34;2050247;28;20594;-83
2023/04/19 04:04:40;;;;;;;13.35;11.95;;;;;;;5.79;100.00;93215.09;2055480;28;20532;-83
2023/04/19 04:05:41;;;;;;;13.38;11.60;;;;;;;5.77;100.00;93206.75;2047382;28;20030;-83
2023/04/19 04:06:44;;;;;;;13.20;11.85;;;;;;;5.78;100.00;93207.50;2051585;28;20026;-83
2023/04/19 04:07:45;;;;;;;13.70;11.38;;;;;;;5.65;100.00;93209.81;2054169;28;20112;-83
2023/04/19 04:08:46;;;;;;;16.05;11.90;;;;;;;5.64;100.00;93205.66;2058990;28;20029;-83
2023/04/19 04:09:48;;;;;;;13.35;11.73;;;;;;;5.62;100.00;93209.81;2051050;28;20101;-83
2023/04/19 04:10:50;;;;;;;14.10;12.25;;;;;;;5.64;100.00;93212.84;2047540;28;20044;-86
2023/04/19 04:11:53;;;;;;;14.63;12.40;;;;;;;5.62;100.00;93215.91;2047215;28;20031;-84
2023/04/19 04:12:55;;;;;;;14.00;11.10;;;;;;;5.60;100.00;93209.44;2056439;28;20512;-84
2023/04/19 04:13:57;;;;;;;12.63;11.32;;;;;;;5.65;100.00;93207.16;2055409;28;20041;-85
2023/04/19 04:14:58;;;;;;;13.07;11.68;;;;;;;5.81;100.00;93214.72;2051140;28;20033;-85
2023/04/19 04:15:59;;;;;;;13.23;11.82;;;;;;;5.74;100.00;93212.81;2047291;28;20079;-83
2023/04/19 04:17:00;;;;;;;13.65;12.13;;;;;;;5.69;100.00;93210.56;2050356;28;20494;-83
2023/04/19 04:18:01;;;;;;;14.85;12.18;;;;;;;5.63;100.00;93204.16;2052779;28;20035;-84
2023/04/19 04:19:02;;;;;;;15.15;12.43;;;;;;;5.62;100.00;93212.47;2054926;28;20129;-84
2023/04/19 04:20:04;;;;;;;13.65;12.25;;;;;;;5.61;100.00;93214.34;2051414;28;20034;-83
2023/04/19 04:21:06;;;;;;;14.98;12.57;;;;;;;5.58;100.00;93220.44;2054737;28;20027;-84
2023/04/19 04:22:08;;;;;;;14.23;12.70;;;;;;;5.76;100.00;93220.41;2043039;28;20400;-83
2023/04/19 04:23:10;;;;;;;14.93;12.45;;;;;;;5.79;100.00;93219.63;2040280;28;20027;-84
2023/04/19 04:24:14;;;;;;;15.50;12.43;;;;;;;5.72;100.00;93222.31;2055765;28;20050;-83
2023/04/19 04:25:17;;;;;;;14.35;12.23;;;;;;;5.68;100.00;93219.66;2051469;28;20149;-83
2023/04/19 04:26:19;;;;;;;13.80;12.40;;;;;;;5.60;100.00;93214.75;2043423;28;20047;-83
2023/04/19 04:27:21;;;;;;;15.07;12.45;;;;;;;5.68;100.00;93216.25;2049873;28;20506;-85
2023/04/19 04:28:23;;;;;;;13.88;12.15;;;;;;;5.67;100.00;93215.50;2054149;28;20290;-85
2023/04/19 04:29:25;;;;;;;14.20;12.63;;;;;;;5.66;100.00;93216.63;2043605;28;20034;-82
2023/04/19 04:30:27;;;;;;;15.07;12.85;;;;;;;5.66;100.00;93216.63;2042555;28;20354;-84
2023/04/19 04:31:28;;;;;;;14.73;12.70;;;;;;;5.68;100.00;93213.59;2038287;28;20466;-83
2023/04/19 04:32:29;;;;;;;14.32;12.25;;;;;;;5.68;100.00;93213.59;2038196;29;20023;-84
2023/04/19 04:33:30;;;;;;;15.35;12.68;;;;;;;5.60;100.00;93210.19;2046847;28;20030;-85
2023/04/19 04:34:31;;;;;;;15.80;12.07;;;;;;;5.68;100.00;93221.56;2053289;28;20491;-83
2023/04/19 04:35:34;;;;;;;15.65;12.05;;;;;;;5.67;100.00;93217.41;2043592;28;21009;-84
2023/04/19 04:36:37;;;;;;;16.10;12.48;;;;;;;5.61;100.00;93218.91;2044394;28;20131;-84
2023/04/19 04:37:39;;;;;;;13.32;11.68;;;;;;;5.64;100.00;93210.19;2043515;28;20028;-83
2023/04/19 04:38:40;;;;;;;14.25;12.27;;;;;;;5.61;100.00;93214.34;2044707;28;20031;-84
2023/04/19 04:39:41;;;;;;;14.98;11.77;;;;;;;5.69;100.00;93215.13;2050309;28;20383;-83
2023/04/19 04:40:42;;;;;;;15.73;12.98;;;;;;;5.62;100.00;93225.72;2050292;28;20030;-83
2023/04/19 04:41:43;;;;;;;15.30;12.90;;;;;;;5.64;100.00;93218.16;2051767;28;20738;-83
2023/04/19 04:42:44;;;;;;;15.43;13.50;;;;;;;5.62;100.00;93220.41;2049017;28;20628;-85
2023/04/19 04:43:48;;;;;;;15.10;13.20;;;;;;;5.65;100.00;93223.06;2051531;28;20053;-85